createdAt,value
2023-12-22T00:00:41.477Z,4.60
2023-12-22T00:09:25.809Z,4.00
2023-12-22T00:17:50.388Z,2.50
2023-12-22T00:26:16.450Z,6.90
2023-12-22T00:34:42.527Z,5.90
2023-12-22T00:43:07.724Z,4.30
2023-12-22T00:51:32.143Z,2.40
2023-12-22T00:59:57.119Z,8.40
2023-12-22T01:08:22.003Z,8.70
2023-12-22T01:16:46.381Z,3.80
2023-12-22T01:25:10.356Z,4.70
2023-12-22T01:33:36.130Z,10.40
2023-12-22T01:42:00.806Z,9.30
2023-12-22T01:50:27.840Z,7.60
2023-12-22T01:58:55.172Z,6.70
2023-12-22T02:07:18.730Z,7.90
2023-12-22T02:15:42.589Z,10.50
2023-12-22T02:24:08.691Z,8.60
2023-12-22T02:32:39.738Z,9.60
2023-12-22T02:49:28.366Z,10.50
2023-12-22T02:57:51.876Z,11.60
2023-12-22T06:33:22.882Z,10.40
2023-12-22T06:41:47.892Z,10.60
2023-12-22T06:50:12.329Z,10.30
2023-12-22T06:58:36.262Z,13.10
2023-12-22T07:07:00.229Z,21.30
2023-12-22T07:15:27.238Z,11.60
2023-12-22T07:23:52.122Z,12.50
2023-12-22T07:32:19.229Z,12.10
2023-12-22T07:40:47.451Z,8.60
2023-12-22T07:49:12.133Z,11.30
2023-12-22T07:57:38.250Z,13.00
2023-12-22T08:06:02.091Z,10.60
2023-12-22T08:14:27.615Z,4.30
2023-12-22T08:22:54.026Z,6.20
2023-12-22T08:31:19.985Z,7.00
2023-12-22T08:39:47.001Z,6.00
2023-12-22T08:48:12.088Z,14.40
2023-12-22T08:56:37.530Z,10.40
2023-12-22T09:05:08.765Z,12.70
2023-12-22T09:13:37.734Z,23.50
2023-12-22T09:22:01.188Z,16.20
2023-12-22T09:30:30.419Z,16.30
2023-12-22T09:38:55.924Z,10.50
2023-12-22T09:47:26.180Z,12.30
2023-12-22T09:55:52.071Z,8.50
2023-12-22T10:04:20.340Z,9.60
2023-12-22T10:12:47.760Z,6.90
2023-12-22T10:21:15.654Z,7.00
2023-12-22T10:29:41.287Z,8.60
2023-12-22T10:38:10.239Z,9.50
2023-12-22T10:46:36.476Z,9.80
2023-12-22T10:55:04.094Z,11.00
2023-12-22T11:03:35.791Z,10.20
2023-12-22T11:12:04.318Z,7.70
2023-12-22T11:20:34.139Z,9.30
2023-12-22T11:29:04.357Z,9.00
2023-12-22T11:37:33.307Z,5.30
2023-12-22T11:46:02.099Z,193.50
2023-12-22T11:55:08.676Z,624.80
2023-12-22T12:03:37.389Z,99.50
2023-12-22T12:12:24.400Z,286.60
2023-12-22T12:20:50.126Z,203.70
2023-12-22T12:29:17.210Z,276.70
2023-12-22T12:37:45.985Z,130.20
2023-12-22T12:46:13.193Z,128.80
2023-12-22T12:54:37.282Z,42.60
2023-12-22T13:03:07.455Z,45.80
2023-12-22T13:11:38.096Z,94.00
2023-12-22T13:20:04.613Z,33.00
2023-12-22T13:28:35.706Z,31.90
2023-12-22T13:37:03.616Z,45.80
2023-12-22T13:45:35.180Z,23.30
2023-12-22T13:54:00.899Z,15.10
2023-12-22T14:02:27.151Z,13.50
2023-12-22T14:10:52.725Z,89.80
2023-12-22T14:19:17.059Z,13.40
2023-12-22T14:27:40.559Z,12.10
2023-12-22T14:36:06.432Z,14.40
2023-12-22T14:44:31.558Z,4.10
2023-12-22T14:52:55.718Z,4.10
2023-12-22T15:01:19.463Z,9.50
2023-12-22T15:09:45.930Z,12.40
2023-12-22T15:18:13.089Z,9.50
2023-12-22T15:26:40.300Z,7.40
2023-12-22T15:35:12.367Z,8.20
2023-12-22T15:43:37.578Z,12.40
2023-12-22T15:52:03.354Z,10.00
2023-12-22T16:00:29.786Z,8.30
2023-12-22T16:08:54.123Z,10.80
2023-12-22T16:17:18.153Z,10.90
2023-12-22T16:25:41.519Z,43.60
2023-12-22T16:34:06.313Z,47.70
2023-12-22T16:42:30.826Z,30.40
2023-12-22T16:50:57.980Z,17.60
2023-12-22T16:59:22.447Z,16.00
2023-12-22T17:07:46.841Z,16.20
2023-12-22T17:16:11.499Z,8.70
2023-12-22T17:24:39.733Z,16.50
2023-12-22T17:33:09.855Z,11.30
2023-12-22T17:41:33.908Z,18.20
2023-12-22T17:49:57.913Z,12.50
2023-12-22T17:58:24.788Z,15.80
2023-12-22T18:06:48.883Z,20.40
2023-12-22T18:15:13.398Z,22.10
2023-12-22T18:23:37.239Z,13.70
2023-12-22T18:32:00.933Z,8.50
2023-12-22T18:40:26.085Z,24.00
2023-12-22T18:48:52.274Z,15.90
2023-12-22T18:57:19.500Z,198.60
2023-12-22T19:05:44.231Z,629.00
2023-12-22T19:14:08.637Z,386.00
2023-12-22T19:22:34.409Z,345.20
2023-12-22T19:31:01.835Z,221.10
2023-12-22T19:39:33.330Z,53.60
2023-12-22T19:47:58.371Z,28.40
2023-12-22T20:13:18.792Z,20.70
2023-12-22T20:21:42.364Z,27.30
2023-12-22T20:30:10.586Z,35.30
2023-12-22T20:38:39.703Z,20.70
2023-12-22T20:47:07.664Z,21.00
2023-12-22T20:55:31.829Z,7.40
2023-12-22T21:03:58.154Z,8.30
2023-12-22T21:12:21.689Z,11.70
2023-12-22T21:20:45.878Z,10.40
2023-12-22T21:29:09.036Z,9.30
2023-12-22T21:37:33.546Z,7.90
2023-12-22T21:45:56.711Z,7.10
2023-12-22T21:54:24.965Z,13.90
2023-12-22T22:02:50.850Z,8.00
2023-12-22T22:11:18.582Z,9.00
2023-12-22T22:19:42.947Z,9.00
2023-12-22T22:28:13.589Z,8.20
2023-12-22T22:36:36.256Z,8.20
2023-12-22T22:45:01.068Z,10.20
2023-12-22T22:53:27.163Z,6.70
2023-12-22T23:01:53.157Z,7.80
2023-12-22T23:10:20.520Z,5.70
2023-12-22T23:18:47.457Z,2.70
2023-12-22T23:27:10.353Z,5.50
2023-12-22T23:35:36.585Z,5.10
2023-12-22T23:44:02.914Z,6.90
2023-12-22T23:52:25.490Z,10.10
